Time;durP1;ratioP1;P1;durP2;ratioP2;P2;SDS_P1;SDS_P2;PMS_P1;PMS_P2;Temp;Humidity;BMP_temperature;BMP_pressure;BME280_temperature;BME280_humidity;BME280_pressure;Samples;Min_cycle;Max_cycle;Signal;HPM_P1;HPM_P2
2021/12/02 00:00:51;;;;;;;12.63;6.38;;;;;;;;;;5075614;28;20225;-79
2021/12/02 00:03:18;;;;;;;12.50;6.65;;;;;;;;;;5093976;28;20196;-79
2021/12/02 00:05:45;;;;;;;12.18;7.50;;;;;;;;;;5094832;28;20197;-80
2021/12/02 00:08:12;;;;;;;8.38;5.95;;;;;;;;;;5085902;28;20685;-82
2021/12/02 00:10:41;;;;;;;8.70;5.88;;;;;;;;;;5088690;28;20194;-79
2021/12/02 00:13:11;;;;;;;12.90;6.85;;;;;;;;;;5093219;28;20681;-75
2021/12/02 00:15:45;;;;;;;8.35;6.00;;;;;;;;;;5090496;28;20208;-84
2021/12/02 00:21:04;;;;;;;7.63;5.70;;;;;;;;;;5071020;28;20232;-84
2021/12/02 00:23:34;;;;;;;15.45;6.45;;;;;;;;;;5087137;28;20197;-81
2021/12/02 00:26:03;;;;;;;14.00;6.55;;;;;;;;;;5085712;28;20624;-84
2021/12/02 00:28:32;;;;;;;8.38;5.70;;;;;;;;;;5083484;28;20216;-84
2021/12/02 00:30:59;;;;;;;6.65;5.40;;;;;;;;;;5089827;28;20203;-79
2021/12/02 00:33:27;;;;;;;7.43;5.70;;;;;;;;;;5088824;28;20642;-84
2021/12/02 00:35:55;;;;;;;7.05;5.40;;;;;;;;;;5078423;28;20189;-84
2021/12/02 00:38:23;;;;;;;13.05;6.50;;;;;;;;;;5080736;28;20231;-83
2021/12/02 00:40:50;;;;;;;7.32;5.65;;;;;;;;;;5091062;28;20217;-81
2021/12/02 00:43:18;;;;;;;7.97;5.60;;;;;;;;;;5090664;28;20200;-79
2021/12/02 00:45:47;;;;;;;13.10;5.95;;;;;;;;;;5088157;28;20492;-77
2021/12/02 00:48:15;;;;;;;8.65;6.00;;;;;;;;;;5086484;28;20212;-81
2021/12/02 00:50:44;;;;;;;16.23;6.25;;;;;;;;;;5089100;28;20258;-84
2021/12/02 00:53:12;;;;;;;8.00;5.75;;;;;;;;;;5090296;28;20193;-82
2021/12/02 00:55:40;;;;;;;10.88;6.03;;;;;;;;;;5089646;28;20190;-82
2021/12/02 00:58:07;;;;;;;10.07;6.53;;;;;;;;;;5090591;28;20223;-77
2021/12/02 01:00:35;;;;;;;11.10;6.55;;;;;;;;;;5086036;28;20216;-83
2021/12/02 01:03:04;;;;;;;9.45;6.65;;;;;;;;;;5091905;28;20197;-84
2021/12/02 01:05:31;;;;;;;8.25;5.80;;;;;;;;;;5092109;28;20209;-87
2021/12/02 01:08:01;;;;;;;9.82;6.97;;;;;;;;;;5087690;28;20209;-81
2021/12/02 01:10:28;;;;;;;13.05;6.68;;;;;;;;;;5083807;28;20205;-88
2021/12/02 01:12:55;;;;;;;13.52;7.15;;;;;;;;;;5088974;28;20208;-85
2021/12/02 01:15:22;;;;;;;12.00;6.70;;;;;;;;;;5087719;28;20236;-88
2021/12/02 01:17:50;;;;;;;13.98;7.22;;;;;;;;;;5088956;28;20297;-84
2021/12/02 01:20:18;;;;;;;11.18;8.15;;;;;;;;;;5088925;28;20225;-81
2021/12/02 01:25:13;;;;;;;9.57;5.93;;;;;;;;;;5083248;28;20716;-85
2021/12/02 01:27:42;;;;;;;14.65;6.47;;;;;;;;;;5083882;28;20836;-77
2021/12/02 01:30:09;;;;;;;9.52;6.20;;;;;;;;;;5088815;28;20198;-81
2021/12/02 01:32:38;;;;;;;11.63;6.47;;;;;;;;;;5097832;28;20189;-80
2021/12/02 01:35:06;;;;;;;13.75;6.95;;;;;;;;;;5089642;28;20224;-78
2021/12/02 01:37:35;;;;;;;13.48;6.35;;;;;;;;;;5090680;28;20224;-79
2021/12/02 01:40:02;;;;;;;9.85;5.68;;;;;;;;;;5082402;28;20239;-87
2021/12/02 01:42:31;;;;;;;6.72;5.50;;;;;;;;;;5086124;28;20197;-81
2021/12/02 01:45:06;;;;;;;7.72;6.18;;;;;;;;;;5092205;28;20314;-79
2021/12/02 01:47:34;;;;;;;10.52;5.93;;;;;;;;;;5097463;28;20216;-75
2021/12/02 01:50:12;;;;;;;15.40;6.03;;;;;;;;;;5094329;28;20189;-79
2021/12/02 01:52:45;;;;;;;13.63;5.15;;;;;;;;;;5088811;28;20196;-84
2021/12/02 01:55:13;;;;;;;7.65;5.05;;;;;;;;;;5089860;28;20288;-79
2021/12/02 01:57:42;;;;;;;9.43;5.70;;;;;;;;;;5087997;28;20414;-83
2021/12/02 02:00:10;;;;;;;7.35;5.22;;;;;;;;;;5090281;28;20217;-79
2021/12/02 02:02:39;;;;;;;13.05;5.50;;;;;;;;;;5090914;28;20212;-79
2021/12/02 02:05:11;;;;;;;10.75;5.38;;;;;;;;;;5082906;28;20657;-78
2021/12/02 02:07:42;;;;;;;7.10;5.45;;;;;;;;;;5070858;28;20217;-79
2021/12/02 02:10:11;;;;;;;11.15;6.18;;;;;;;;;;5068703;28;20190;-82
2021/12/02 02:12:39;;;;;;;10.13;5.35;;;;;;;;;;5081052;28;20574;-84
2021/12/02 02:15:06;;;;;;;9.40;6.18;;;;;;;;;;5085509;28;20223;-83
2021/12/02 02:17:39;;;;;;;9.07;5.55;;;;;;;;;;5086125;28;20216;-79
2021/12/02 02:20:10;;;;;;;8.32;6.50;;;;;;;;;;5088953;28;20228;-78
2021/12/02 02:22:39;;;;;;;8.68;6.13;;;;;;;;;;5089193;28;20246;-87
2021/12/02 02:25:11;;;;;;;10.60;6.22;;;;;;;;;;5088575;28;20193;-85
2021/12/02 02:27:38;;;;;;;12.95;6.55;;;;;;;;;;5070469;28;20222;-81
2021/12/02 02:30:08;;;;;;;8.50;5.85;;;;;;;;;;5070836;28;20375;-82
2021/12/02 02:32:35;;;;;;;13.48;6.82;;;;;;;;;;5070889;28;20248;-86
2021/12/02 02:35:03;;;;;;;10.52;6.80;;;;;;;;;;5081872;28;20229;-86
2021/12/02 02:37:33;;;;;;;12.00;6.30;;;;;;;;;;5084787;28;20310;-82
2021/12/02 02:40:04;;;;;;;7.55;6.13;;;;;;;;;;5088152;28;20686;-82
2021/12/02 02:42:32;;;;;;;8.75;6.70;;;;;;;;;;5072273;28;20605;-79
2021/12/02 02:44:59;;;;;;;10.68;6.45;;;;;;;;;;5068636;28;20230;-82
2021/12/02 02:47:27;;;;;;;7.90;6.00;;;;;;;;;;5072346;28;20218;-79
2021/12/02 02:49:54;;;;;;;10.48;7.15;;;;;;;;;;5072830;28;20659;-80
2021/12/02 02:52:21;;;;;;;9.27;6.43;;;;;;;;;;5073920;28;20194;-82
2021/12/02 02:54:49;;;;;;;10.80;6.18;;;;;;;;;;5081294;28;20190;-84
2021/12/02 02:57:20;;;;;;;7.68;5.85;;;;;;;;;;5088254;28;20734;-84
2021/12/02 03:00:01;;;;;;;7.43;5.47;;;;;;;;;;5088869;28;20300;-79
2021/12/02 03:02:34;;;;;;;10.23;5.70;;;;;;;;;;5089907;28;20197;-83
2021/12/02 03:05:09;;;;;;;9.60;5.65;;;;;;;;;;5090219;28;20280;-79
2021/12/02 03:07:40;;;;;;;6.15;4.50;;;;;;;;;;5090413;28;20216;-78
2021/12/02 03:10:14;;;;;;;8.85;4.75;;;;;;;;;;5088354;28;20734;-79
2021/12/02 03:12:53;;;;;;;8.05;5.00;;;;;;;;;;5077136;28;20216;-82
2021/12/02 03:18:03;;;;;;;12.05;4.05;;;;;;;;;;5088276;28;20282;-80
2021/12/02 03:20:30;;;;;;;12.32;4.13;;;;;;;;;;5091907;28;20224;-81
2021/12/02 03:22:57;;;;;;;5.35;3.85;;;;;;;;;;5091328;28;20185;-79
2021/12/02 03:25:25;;;;;;;6.18;3.75;;;;;;;;;;5085893;28;20608;-83
2021/12/02 03:27:53;;;;;;;6.47;4.72;;;;;;;;;;5084404;28;20248;-82
2021/12/02 03:30:20;;;;;;;8.95;5.20;;;;;;;;;;5087811;28;20896;-78
2021/12/02 03:32:48;;;;;;;9.13;4.90;;;;;;;;;;5087524;28;20200;-82
2021/12/02 03:35:15;;;;;;;9.32;5.40;;;;;;;;;;5091609;28;20554;-82
2021/12/02 03:37:42;;;;;;;10.95;5.65;;;;;;;;;;5091552;28;20217;-79
2021/12/02 03:40:12;;;;;;;7.65;5.13;;;;;;;;;;5091188;28;20221;-76
2021/12/02 03:42:44;;;;;;;9.05;4.75;;;;;;;;;;5081605;28;20289;-77
2021/12/02 03:45:13;;;;;;;6.25;4.72;;;;;;;;;;5087896;28;20193;-80
2021/12/02 03:47:40;;;;;;;5.90;4.55;;;;;;;;;;5089857;28;20212;-77
2021/12/02 03:50:08;;;;;;;4.85;4.32;;;;;;;;;;5094528;28;20292;-78
2021/12/02 03:52:35;;;;;;;6.65;4.85;;;;;;;;;;5089833;28;20200;-78
2021/12/02 03:55:03;;;;;;;6.45;4.32;;;;;;;;;;5073426;28;20190;-83
2021/12/02 03:57:32;;;;;;;7.93;4.50;;;;;;;;;;5087964;28;20217;-82
2021/12/02 03:59:59;;;;;;;6.03;4.85;;;;;;;;;;5088169;28;20292;-84
2021/12/02 04:02:27;;;;;;;4.68;3.92;;;;;;;;;;5087686;28;20558;-79
2021/12/02 04:04:55;;;;;;;10.05;5.55;;;;;;;;;;5090204;28;20199;-83
2021/12/02 04:07:25;;;;;;;6.63;5.10;;;;;;;;;;5091938;28;20243;-78
2021/12/02 04:09:54;;;;;;;7.95;4.93;;;;;;;;;;5096037;28;20268;-83
2021/12/02 04:12:27;;;;;;;8.07;4.78;;;;;;;;;;5086215;28;20274;-82
2021/12/02 04:14:59;;;;;;;10.35;4.38;;;;;;;;;;5082534;28;20243;-79
2021/12/02 04:17:41;;;;;;;6.90;4.82;;;;;;;;;;5088196;28;20304;-76
2021/12/02 04:20:11;;;;;;;12.60;4.93;;;;;;;;;;5072637;28;20605;-79
2021/12/02 04:22:39;;;;;;;7.75;5.30;;;;;;;;;;5070662;28;20187;-77
2021/12/02 04:25:07;;;;;;;5.85;4.55;;;;;;;;;;5063942;28;20214;-82
2021/12/02 04:27:34;;;;;;;5.05;4.55;;;;;;;;;;5068653;28;20210;-83
2021/12/02 04:30:02;;;;;;;5.40;3.88;;;;;;;;;;5076670;28;20201;-79
2021/12/02 04:32:30;;;;;;;5.47;3.95;;;;;;;;;;5086008;28;20197;-77
2021/12/02 04:35:03;;;;;;;7.78;4.00;;;;;;;;;;5093552;28;20201;-82
2021/12/02 04:37:30;;;;;;;6.70;4.72;;;;;;;;;;5094345;28;20225;-84
2021/12/02 04:39:57;;;;;;;6.03;3.90;;;;;;;;;;5090165;28;20275;-81
2021/12/02 04:42:25;;;;;;;9.05;3.97;;;;;;;;;;5094994;28;20221;-77
2021/12/02 04:44:52;;;;;;;8.23;3.55;;;;;;;;;;5083156;28;20202;-81
2021/12/02 04:47:20;;;;;;;8.13;4.30;;;;;;;;;;5072029;28;20224;-83
2021/12/02 04:49:48;;;;;;;5.88;4.60;;;;;;;;;;5084568;28;20190;-78
2021/12/02 04:52:15;;;;;;;10.20;4.35;;;;;;;;;;5095383;28;21112;-82
2021/12/02 04:54:43;;;;;;;5.38;3.83;;;;;;;;;;5086447;28;20193;-82
2021/12/02 04:57:10;;;;;;;9.18;5.78;;;;;;;;;;5087824;28;20588;-81
2021/12/02 04:59:37;;;;;;;7.75;4.80;;;;;;;;;;5087187;28;20225;-81
2021/12/02 05:02:05;;;;;;;8.02;4.50;;;;;;;;;;5090528;28;20217;-85
2021/12/02 05:04:32;;;;;;;6.15;4.30;;;;;;;;;;5088834;28;20193;-76
2021/12/02 05:07:00;;;;;;;11.45;5.35;;;;;;;;;;5069179;28;20586;-78
2021/12/02 05:09:27;;;;;;;8.13;4.53;;;;;;;;;;5071201;28;20201;-77
2021/12/02 05:11:55;;;;;;;7.72;5.32;;;;;;;;;;5071405;28;20201;-75
2021/12/02 05:14:22;;;;;;;6.38;4.65;;;;;;;;;;5087323;28;20220;-82
2021/12/02 05:16:49;;;;;;;9.93;4.72;;;;;;;;;;5083143;28;20211;-76
2021/12/02 05:19:16;;;;;;;6.05;5.47;;;;;;;;;;5080939;28;20190;-77
2021/12/02 05:21:43;;;;;;;6.07;4.65;;;;;;;;;;5079704;28;20213;-81
2021/12/02 05:24:12;;;;;;;6.18;4.25;;;;;;;;;;5087928;28;20189;-80
2021/12/02 05:26:39;;;;;;;6.03;3.95;;;;;;;;;;5090321;28;20209;-78
2021/12/02 05:29:09;;;;;;;5.35;3.92;;;;;;;;;;5077337;28;20212;-79
2021/12/02 05:31:37;;;;;;;7.55;3.85;;;;;;;;;;5085410;28;20185;-77
2021/12/02 05:34:04;;;;;;;7.07;4.25;;;;;;;;;;5085982;28;20186;-79
2021/12/02 05:36:31;;;;;;;5.90;3.58;;;;;;;;;;5089393;28;20584;-81
2021/12/02 05:38:58;;;;;;;16.38;4.10;;;;;;;;;;5069315;28;20187;-78
2021/12/02 05:41:28;;;;;;;4.03;2.90;;;;;;;;;;5069425;28;20218;-83
2021/12/02 05:43:56;;;;;;;5.63;3.83;;;;;;;;;;5069041;28;20192;-82
2021/12/02 05:46:23;;;;;;;9.70;4.03;;;;;;;;;;5073212;28;20197;-83
2021/12/02 05:48:50;;;;;;;7.05;4.40;;;;;;;;;;5085667;28;20189;-86
2021/12/02 05:51:17;;;;;;;4.72;3.40;;;;;;;;;;5087241;28;20213;-83
2021/12/02 05:53:45;;;;;;;7.82;3.30;;;;;;;;;;5089558;28;20200;-83
2021/12/02 05:56:12;;;;;;;8.43;3.92;;;;;;;;;;5086563;28;20189;-84
2021/12/02 05:58:40;;;;;;;11.95;3.75;;;;;;;;;;5069321;28;20217;-84
2021/12/02 06:01:08;;;;;;;5.90;4.15;;;;;;;;;;5069500;28;20686;-81
2021/12/02 06:03:37;;;;;;;9.90;3.22;;;;;;;;;;5082799;28;20185;-78
2021/12/02 06:06:04;;;;;;;4.80;3.20;;;;;;;;;;5084459;28;20570;-85
2021/12/02 06:08:32;;;;;;;5.72;2.80;;;;;;;;;;5088360;28;20201;-81
2021/12/02 06:10:59;;;;;;;5.47;3.03;;;;;;;;;;5088469;28;20247;-82
2021/12/02 06:13:26;;;;;;;8.00;3.20;;;;;;;;;;5085969;28;20204;-83
2021/12/02 06:15:58;;;;;;;6.55;3.38;;;;;;;;;;5089240;28;20189;-79
2021/12/02 06:18:25;;;;;;;4.03;2.75;;;;;;;;;;5080754;28;20228;-82
2021/12/02 06:20:54;;;;;;;3.90;2.97;;;;;;;;;;5086638;28;20195;-79
2021/12/02 06:23:21;;;;;;;5.60;3.78;;;;;;;;;;5088692;28;20267;-79
2021/12/02 06:25:48;;;;;;;7.05;2.70;;;;;;;;;;5085145;28;20186;-84
2021/12/02 06:28:16;;;;;;;4.60;2.25;;;;;;;;;;5073984;28;20214;-77
2021/12/02 06:30:44;;;;;;;3.42;2.35;;;;;;;;;;5087394;28;20196;-85
2021/12/02 06:33:13;;;;;;;5.43;2.42;;;;;;;;;;5087767;28;20194;-80
2021/12/02 06:35:41;;;;;;;4.18;2.33;;;;;;;;;;5090965;28;20200;-86
2021/12/02 06:38:12;;;;;;;2.97;2.45;;;;;;;;;;5089434;28;20205;-82
2021/12/02 06:40:42;;;;;;;6.28;2.70;;;;;;;;;;5088109;28;20197;-85
2021/12/02 06:43:10;;;;;;;3.60;3.30;;;;;;;;;;5092838;28;20217;-76
2021/12/02 06:45:40;;;;;;;9.23;3.40;;;;;;;;;;5092322;28;20274;-77
2021/12/02 06:48:07;;;;;;;5.47;3.35;;;;;;;;;;5081564;28;20291;-75
2021/12/02 06:50:37;;;;;;;4.35;3.90;;;;;;;;;;5093407;28;20219;-83
2021/12/02 06:53:05;;;;;;;6.25;4.43;;;;;;;;;;5093389;28;20746;-77
2021/12/02 06:55:32;;;;;;;5.57;4.10;;;;;;;;;;5092574;28;20197;-83
2021/12/02 06:57:59;;;;;;;9.32;5.05;;;;;;;;;;5086615;28;20217;-81
2021/12/02 07:00:28;;;;;;;7.40;5.10;;;;;;;;;;5089230;28;20213;-80
2021/12/02 07:02:56;;;;;;;6.00;4.65;;;;;;;;;;5090459;28;20223;-77
2021/12/02 07:05:23;;;;;;;7.10;4.65;;;;;;;;;;5091260;28;20642;-77
2021/12/02 07:07:51;;;;;;;8.52;5.15;;;;;;;;;;5091892;28;20694;-82
2021/12/02 07:10:21;;;;;;;4.97;4.50;;;;;;;;;;5089698;28;20228;-79
2021/12/02 07:12:50;;;;;;;9.27;5.00;;;;;;;;;;5071769;28;20346;-83
2021/12/02 07:15:19;;;;;;;11.55;5.97;;;;;;;;;;5086780;28;20585;-79
2021/12/02 07:17:47;;;;;;;7.00;5.25;;;;;;;;;;5092090;28;20217;-81
2021/12/02 07:20:15;;;;;;;5.35;4.40;;;;;;;;;;5085018;28;20190;-79
2021/12/02 07:22:42;;;;;;;9.52;4.70;;;;;;;;;;5088404;28;20236;-81
2021/12/02 07:25:11;;;;;;;5.55;4.30;;;;;;;;;;5088947;28;20196;-78
2021/12/02 07:27:39;;;;;;;6.55;4.22;;;;;;;;;;5090633;28;20214;-81
2021/12/02 07:30:07;;;;;;;7.55;4.57;;;;;;;;;;5091654;28;20200;-80
2021/12/02 07:32:37;;;;;;;6.93;4.20;;;;;;;;;;5085613;28;20194;-80
2021/12/02 07:35:06;;;;;;;6.93;4.13;;;;;;;;;;5089210;28;20208;-83
2021/12/02 07:37:33;;;;;;;6.38;4.00;;;;;;;;;;5086351;28;20220;-78
2021/12/02 07:40:00;;;;;;;4.88;3.80;;;;;;;;;;5085069;28;20207;-84
2021/12/02 07:42:29;;;;;;;5.97;3.35;;;;;;;;;;5089518;28;20312;-78
2021/12/02 07:44:56;;;;;;;6.63;3.17;;;;;;;;;;5091585;28;20554;-83
2021/12/02 07:47:24;;;;;;;5.32;3.30;;;;;;;;;;5089739;28;20592;-79
2021/12/02 07:49:51;;;;;;;5.95;3.05;;;;;;;;;;5084338;28;20205;-77
2021/12/02 07:52:21;;;;;;;3.83;3.10;;;;;;;;;;5087534;28;20207;-79
2021/12/02 07:54:48;;;;;;;4.13;2.40;;;;;;;;;;5070661;28;20194;-86
2021/12/02 07:57:17;;;;;;;4.65;2.58;;;;;;;;;;5071756;28;20252;-78
2021/12/02 07:59:46;;;;;;;4.25;2.70;;;;;;;;;;5070099;28;20644;-77
2021/12/02 08:02:15;;;;;;;3.80;2.03;;;;;;;;;;5071329;28;20213;-79
2021/12/02 08:04:42;;;;;;;4.22;2.20;;;;;;;;;;5083742;28;20204;-75
2021/12/02 08:07:10;;;;;;;3.28;2.05;;;;;;;;;;5085825;28;20217;-78
2021/12/02 08:09:37;;;;;;;3.75;2.10;;;;;;;;;;5088322;28;20658;-78
2021/12/02 08:12:04;;;;;;;3.63;2.42;;;;;;;;;;5090775;28;20197;-77
2021/12/02 08:14:32;;;;;;;4.10;2.50;;;;;;;;;;5087917;28;20189;-77
2021/12/02 08:17:01;;;;;;;5.60;2.60;;;;;;;;;;5090924;28;20219;-75
2021/12/02 08:19:28;;;;;;;2.75;2.50;;;;;;;;;;5079943;28;20198;-76
2021/12/02 08:21:55;;;;;;;3.15;2.80;;;;;;;;;;5085863;28;20201;-74
2021/12/02 08:24:24;;;;;;;3.83;3.10;;;;;;;;;;5088792;28;20200;-79
2021/12/02 08:26:51;;;;;;;4.35;3.30;;;;;;;;;;5090275;28;20214;-75
2021/12/02 08:29:18;;;;;;;5.45;3.28;;;;;;;;;;5089054;28;20197;-77
2021/12/02 08:31:45;;;;;;;7.68;4.07;;;;;;;;;;5089801;28;20193;-77
2021/12/02 08:34:15;;;;;;;5.75;4.20;;;;;;;;;;5090076;28;20526;-76
2021/12/02 08:36:45;;;;;;;5.82;4.43;;;;;;;;;;5087226;28;20305;-78
2021/12/02 08:39:17;;;;;;;8.55;4.55;;;;;;;;;;5084858;28;20559;-80
2021/12/02 08:41:47;;;;;;;6.45;4.22;;;;;;;;;;5090565;28;20221;-84
2021/12/02 08:44:14;;;;;;;5.20;4.35;;;;;;;;;;5079550;28;20193;-80
2021/12/02 08:46:42;;;;;;;7.22;4.72;;;;;;;;;;5069715;28;20757;-80
2021/12/02 08:49:09;;;;;;;9.45;4.15;;;;;;;;;;5074837;28;20217;-82
2021/12/02 08:51:38;;;;;;;8.15;4.22;;;;;;;;;;5072163;28;20209;-79
2021/12/02 08:54:06;;;;;;;6.93;4.55;;;;;;;;;;5070952;28;20862;-77
2021/12/02 08:56:33;;;;;;;5.20;4.70;;;;;;;;;;5074147;28;20189;-83
2021/12/02 08:59:00;;;;;;;5.22;4.47;;;;;;;;;;5085819;28;20225;-78
2021/12/02 09:01:29;;;;;;;6.80;4.80;;;;;;;;;;5088129;28;20197;-78
2021/12/02 09:03:56;;;;;;;5.75;4.80;;;;;;;;;;5086368;28;20279;-78
2021/12/02 09:06:23;;;;;;;7.85;5.97;;;;;;;;;;5076632;28;20652;-80
2021/12/02 09:08:54;;;;;;;8.27;5.90;;;;;;;;;;5069819;28;20209;-78
2021/12/02 09:11:21;;;;;;;7.78;7.03;;;;;;;;;;5075978;28;20621;-80
2021/12/02 09:13:49;;;;;;;12.50;9.82;;;;;;;;;;5090167;28;20203;-81
2021/12/02 09:16:16;;;;;;;9.70;7.10;;;;;;;;;;5092095;28;20284;-83
2021/12/02 09:18:43;;;;;;;6.70;5.78;;;;;;;;;;5085815;28;20194;-76
2021/12/02 09:21:10;;;;;;;7.53;4.78;;;;;;;;;;5085089;28;20190;-82
2021/12/02 09:23:38;;;;;;;6.90;4.78;;;;;;;;;;5085833;28;20217;-80
2021/12/02 09:26:06;;;;;;;8.30;5.50;;;;;;;;;;5089802;28;20718;-79
2021/12/02 09:28:34;;;;;;;7.40;5.70;;;;;;;;;;5088067;28;20713;-79
2021/12/02 09:31:01;;;;;;;6.82;4.65;;;;;;;;;;5089862;28;20190;-77
2021/12/02 09:33:28;;;;;;;5.68;4.13;;;;;;;;;;5080622;28;20198;-78
2021/12/02 09:35:55;;;;;;;7.60;4.85;;;;;;;;;;5084076;28;20280;-76
2021/12/02 09:38:23;;;;;;;6.93;4.68;;;;;;;;;;5086145;28;20219;-79
2021/12/02 09:40:50;;;;;;;6.57;3.63;;;;;;;;;;5088605;28;20220;-78
2021/12/02 09:43:18;;;;;;;5.72;4.15;;;;;;;;;;5087043;28;20578;-80
2021/12/02 09:45:46;;;;;;;4.30;3.58;;;;;;;;;;5088277;28;20193;-76
2021/12/02 09:48:13;;;;;;;6.70;3.30;;;;;;;;;;5084697;28;20218;-75
2021/12/02 09:50:50;;;;;;;3.63;2.88;;;;;;;;;;5078792;28;20284;-77
2021/12/02 09:53:21;;;;;;;4.30;3.10;;;;;;;;;;5085242;28;20181;-76
2021/12/02 09:55:53;;;;;;;5.90;3.83;;;;;;;;;;5086254;28;20235;-78
2021/12/02 09:58:23;;;;;;;5.10;3.60;;;;;;;;;;5088698;28;20303;-75
2021/12/02 10:00:57;;;;;;;4.38;2.92;;;;;;;;;;5088621;28;20221;-76
2021/12/02 10:03:29;;;;;;;3.08;2.78;;;;;;;;;;5083758;28;20253;-78
2021/12/02 10:06:03;;;;;;;6.07;3.15;;;;;;;;;;5079055;28;20242;-77
2021/12/02 10:08:34;;;;;;;4.55;2.65;;;;;;;;;;5085997;28;20217;-77
2021/12/02 10:11:03;;;;;;;5.97;3.25;;;;;;;;;;5085954;28;20198;-77
2021/12/02 10:13:37;;;;;;;5.07;4.07;;;;;;;;;;5084754;28;20189;-80
2021/12/02 10:16:05;;;;;;;3.53;3.20;;;;;;;;;;5083620;28;20494;-85
2021/12/02 10:18:38;;;;;;;3.63;3.22;;;;;;;;;;5089090;28;20619;-80
2021/12/02 10:21:16;;;;;;;4.00;3.60;;;;;;;;;;5082889;28;20552;-78
2021/12/02 10:23:46;;;;;;;10.40;5.72;;;;;;;;;;5085030;28;20754;-78
2021/12/02 10:26:18;;;;;;;5.43;3.67;;;;;;;;;;5085333;28;20229;-80
2021/12/02 10:28:47;;;;;;;5.82;3.75;;;;;;;;;;5070614;28;20198;-81
2021/12/02 10:31:20;;;;;;;8.32;4.80;;;;;;;;;;5068497;28;20190;-76
2021/12/02 10:33:50;;;;;;;6.75;3.88;;;;;;;;;;5068880;28;20194;-78
2021/12/02 10:36:24;;;;;;;5.65;4.20;;;;;;;;;;5076011;28;20672;-77
2021/12/02 10:38:52;;;;;;;6.50;3.92;;;;;;;;;;5083989;28;20280;-78
2021/12/02 10:41:21;;;;;;;5.90;4.68;;;;;;;;;;5087510;28;20199;-81
2021/12/02 10:44:03;;;;;;;5.55;3.63;;;;;;;;;;5079031;28;20306;-81
2021/12/02 10:46:32;;;;;;;5.30;3.20;;;;;;;;;;5067347;28;20190;-77
2021/12/02 10:48:59;;;;;;;7.28;3.05;;;;;;;;;;5080720;28;20569;-79
2021/12/02 10:51:43;;;;;;;7.93;3.05;;;;;;;;;;5074634;28;20202;-80
2021/12/02 10:54:13;;;;;;;3.70;2.78;;;;;;;;;;5074791;28;20399;-79
2021/12/02 10:56:41;;;;;;;8.85;4.80;;;;;;;;;;5084691;28;20214;-77
2021/12/02 10:59:23;;;;;;;5.40;3.05;;;;;;;;;;5066929;28;20321;-79
2021/12/02 11:01:52;;;;;;;5.90;3.05;;;;;;;;;;5067380;28;20221;-76
2021/12/02 11:04:20;;;;;;;6.28;2.90;;;;;;;;;;5081013;28;20217;-84
2021/12/02 11:06:48;;;;;;;3.85;2.35;;;;;;;;;;5081330;28;20228;-79
2021/12/02 11:09:30;;;;;;;8.82;3.45;;;;;;;;;;5088006;28;20185;-78
2021/12/02 11:12:12;;;;;;;4.85;3.10;;;;;;;;;;5086315;28;20204;-78
2021/12/02 11:14:41;;;;;;;5.55;2.72;;;;;;;;;;5091249;28;20197;-79
2021/12/02 11:17:11;;;;;;;8.02;2.70;;;;;;;;;;5091765;28;20235;-75
2021/12/02 11:19:38;;;;;;;3.35;2.10;;;;;;;;;;5092007;28;20203;-76
2021/12/02 11:22:06;;;;;;;5.95;3.17;;;;;;;;;;5092332;28;20220;-78
2021/12/02 11:24:33;;;;;;;4.93;2.72;;;;;;;;;;5087110;28;20221;-80
2021/12/02 11:27:09;;;;;;;5.85;3.28;;;;;;;;;;5083008;28;20228;-78
2021/12/02 11:29:51;;;;;;;5.60;3.00;;;;;;;;;;5070545;28;20200;-75
2021/12/02 11:32:33;;;;;;;4.82;3.00;;;;;;;;;;5070200;28;20202;-74
2021/12/02 11:35:03;;;;;;;5.03;2.75;;;;;;;;;;5070000;28;20189;-76
2021/12/02 11:37:31;;;;;;;4.32;2.45;;;;;;;;;;5070577;28;20225;-79
2021/12/02 11:39:58;;;;;;;5.00;2.17;;;;;;;;;;5087989;28;20177;-78
2021/12/02 11:42:26;;;;;;;4.30;2.80;;;;;;;;;;5086342;28;20229;-81
2021/12/02 11:44:54;;;;;;;4.40;2.90;;;;;;;;;;5091482;28;20189;-75
2021/12/02 11:47:21;;;;;;;4.95;2.15;;;;;;;;;;5074098;28;20347;-76
2021/12/02 11:49:49;;;;;;;6.10;3.20;;;;;;;;;;5078323;28;20199;-78
2021/12/02 11:52:18;;;;;;;5.65;2.78;;;;;;;;;;5088670;28;20204;-77
2021/12/02 11:54:45;;;;;;;6.78;3.10;;;;;;;;;;5074500;28;20560;-77
2021/12/02 11:57:12;;;;;;;5.07;3.28;;;;;;;;;;5090243;28;20217;-76
2021/12/02 11:59:40;;;;;;;3.10;2.78;;;;;;;;;;5090092;28;20577;-79
2021/12/02 12:02:07;;;;;;;4.00;2.35;;;;;;;;;;5090673;28;20554;-83
2021/12/02 12:04:38;;;;;;;3.95;3.00;;;;;;;;;;5087053;28;20221;-76
2021/12/02 12:07:13;;;;;;;4.18;2.58;;;;;;;;;;5073081;28;20224;-86
2021/12/02 12:09:42;;;;;;;5.13;2.88;;;;;;;;;;5078976;28;20862;-76
2021/12/02 12:12:10;;;;;;;7.75;3.20;;;;;;;;;;5085921;28;20208;-79
2021/12/02 12:14:39;;;;;;;3.97;3.00;;;;;;;;;;5088205;28;20192;-80
2021/12/02 12:17:08;;;;;;;3.75;3.10;;;;;;;;;;5088813;28;20213;-85
2021/12/02 12:19:40;;;;;;;6.50;3.15;;;;;;;;;;5090677;28;20200;-77
2021/12/02 12:22:08;;;;;;;4.65;3.10;;;;;;;;;;5088738;28;20714;-80
2021/12/02 12:24:45;;;;;;;2.60;2.40;;;;;;;;;;5087961;28;20217;-79
2021/12/02 12:27:13;;;;;;;5.40;2.70;;;;;;;;;;5084078;28;20710;-81
2021/12/02 12:29:40;;;;;;;7.55;2.85;;;;;;;;;;5085626;28;20198;-79
2021/12/02 12:32:22;;;;;;;2.50;2.00;;;;;;;;;;5088266;28;20197;-76
2021/12/02 12:34:54;;;;;;;4.43;2.53;;;;;;;;;;5084637;28;20285;-80
2021/12/02 12:37:48;;;;;;;9.43;2.95;;;;;;;;;;5090769;28;20605;-79
2021/12/02 12:40:19;;;;;;;4.20;2.80;;;;;;;;;;5083588;28;20608;-80
2021/12/02 12:42:47;;;;;;;7.97;2.67;;;;;;;;;;5092643;28;20284;-82
2021/12/02 12:45:24;;;;;;;4.50;2.33;;;;;;;;;;5092762;28;20570;-81
2021/12/02 12:47:53;;;;;;;7.00;2.55;;;;;;;;;;5075893;28;20650;-79
2021/12/02 12:50:29;;;;;;;6.63;3.67;;;;;;;;;;5085162;28;20209;-80
2021/12/02 12:53:16;;;;;;;5.68;3.42;;;;;;;;;;5087757;28;20192;-80
2021/12/02 12:56:01;;;;;;;4.13;2.65;;;;;;;;;;5088995;28;20198;-80
2021/12/02 12:58:30;;;;;;;5.80;2.95;;;;;;;;;;5087101;28;20224;-77
2021/12/02 13:00:59;;;;;;;4.70;3.10;;;;;;;;;;5086991;28;20217;-81
2021/12/02 13:03:30;;;;;;;3.75;2.50;;;;;;;;;;5078026;28;20225;-77
2021/12/02 13:06:07;;;;;;;7.72;2.90;;;;;;;;;;5071550;28;20193;-75
2021/12/02 13:08:37;;;;;;;2.90;2.30;;;;;;;;;;5090117;28;20693;-81
2021/12/02 13:11:11;;;;;;;5.38;3.20;;;;;;;;;;5089921;28;20276;-78
2021/12/02 13:13:41;;;;;;;8.27;3.30;;;;;;;;;;5085820;28;20189;-78
2021/12/02 13:16:11;;;;;;;6.78;3.00;;;;;;;;;;5087256;28;20189;-78
2021/12/02 13:18:40;;;;;;;3.25;2.80;;;;;;;;;;5087365;28;20684;-78
2021/12/02 13:21:22;;;;;;;5.18;2.78;;;;;;;;;;5089851;28;20221;-79
2021/12/02 13:23:57;;;;;;;4.35;3.20;;;;;;;;;;5086737;28;20228;-79
2021/12/02 13:26:25;;;;;;;11.90;5.30;;;;;;;;;;5074839;28;20204;-76
2021/12/02 13:28:56;;;;;;;6.68;4.03;;;;;;;;;;5085439;28;20193;-77
2021/12/02 13:31:24;;;;;;;4.88;3.45;;;;;;;;;;5085535;28;20186;-75
2021/12/02 13:33:52;;;;;;;8.00;4.05;;;;;;;;;;5089771;28;20193;-80
2021/12/02 13:36:21;;;;;;;13.23;3.30;;;;;;;;;;5087395;28;20338;-81
2021/12/02 13:39:04;;;;;;;5.45;3.80;;;;;;;;;;5088162;28;20269;-79
2021/12/02 13:41:38;;;;;;;12.77;5.35;;;;;;;;;;5079796;28;20605;-80
2021/12/02 13:44:10;;;;;;;7.53;4.85;;;;;;;;;;5087339;28;20221;-76
2021/12/02 13:46:40;;;;;;;9.60;7.07;;;;;;;;;;5083324;28;20602;-76
2021/12/02 13:49:12;;;;;;;7.15;5.20;;;;;;;;;;5085802;28;20234;-84
2021/12/02 13:54:23;;;;;;;5.05;4.00;;;;;;;;;;5068270;28;20186;-75
2021/12/02 13:56:51;;;;;;;7.72;4.03;;;;;;;;;;5067894;28;20224;-77
2021/12/02 13:59:23;;;;;;;4.10;3.42;;;;;;;;;;5078171;28;20221;-76
2021/12/02 14:01:52;;;;;;;4.25;3.72;;;;;;;;;;5084008;28;20206;-82
2021/12/02 14:04:19;;;;;;;7.38;3.58;;;;;;;;;;5088500;28;20221;-81
2021/12/02 14:06:47;;;;;;;3.20;2.90;;;;;;;;;;5088760;28;20209;-80
2021/12/02 14:09:16;;;;;;;5.97;3.67;;;;;;;;;;5083754;28;20194;-82
2021/12/02 14:11:43;;;;;;;11.20;6.40;;;;;;;;;;5069382;28;20202;-80
2021/12/02 14:14:16;;;;;;;5.28;4.32;;;;;;;;;;5070353;28;20663;-80
2021/12/02 14:16:45;;;;;;;10.23;3.90;;;;;;;;;;5084152;28;20674;-80
2021/12/02 14:19:13;;;;;;;6.03;3.72;;;;;;;;;;5084861;28;20204;-81
2021/12/02 14:21:40;;;;;;;5.05;3.80;;;;;;;;;;5089034;28;20190;-79
2021/12/02 14:24:08;;;;;;;11.60;4.20;;;;;;;;;;5086706;28;20221;-77
2021/12/02 14:26:35;;;;;;;5.72;4.45;;;;;;;;;;5088496;28;20200;-75
2021/12/02 14:29:02;;;;;;;4.05;3.65;;;;;;;;;;5083367;28;20201;-78
2021/12/02 14:31:31;;;;;;;6.25;3.85;;;;;;;;;;5079263;28;20196;-78
2021/12/02 14:34:00;;;;;;;6.82;3.85;;;;;;;;;;5084336;28;20185;-78
2021/12/02 14:36:29;;;;;;;4.00;3.60;;;;;;;;;;5084436;28;20193;-79
2021/12/02 14:39:01;;;;;;;7.03;5.05;;;;;;;;;;5088919;28;20186;-83
2021/12/02 14:41:30;;;;;;;7.30;4.75;;;;;;;;;;5089733;28;20195;-84
2021/12/02 14:43:59;;;;;;;6.88;4.07;;;;;;;;;;5092832;28;20543;-77
2021/12/02 14:46:27;;;;;;;6.55;4.20;;;;;;;;;;5084244;28;20193;-78
2021/12/02 14:49:05;;;;;;;6.50;4.72;;;;;;;;;;5094651;28;20200;-81
2021/12/02 14:51:43;;;;;;;4.40;4.00;;;;;;;;;;5093532;28;20295;-79
2021/12/02 14:54:11;;;;;;;8.45;4.63;;;;;;;;;;5086904;28;20681;-80
2021/12/02 14:56:41;;;;;;;7.28;3.92;;;;;;;;;;5086934;28;20686;-76
2021/12/02 14:59:10;;;;;;;8.50;4.90;;;;;;;;;;5088520;28;20224;-75
2021/12/02 15:01:38;;;;;;;9.07;5.50;;;;;;;;;;5092846;28;20197;-76
2021/12/02 15:04:20;;;;;;;7.65;4.75;;;;;;;;;;5085791;28;20222;-80